KDNL/DNL METAR and TAF weather

Enter ICAO airport designator
Station Type Date Time Source
KDNL METAR 2020/07/08 00:53 UTC NOAA

KDNL 080053Z AUTO 06005KT 10SM FEW015 OVC026 26/23 A2993 RMK AO2 RAB00E40 SLP130 P0000 T02560233


Station Type Date Time Source
KDNL Decoded METAR 2020/07/08 00:53 UTC NOAA

AUGUSTA DANIEL FIELD, GA, United States (KDNL) 33-28N 82-02W 130M
Jul 07, 2020 - 08:53 PM EDT / 2020.07.08 0053 UTC
Wind: from the ENE (060 degrees) at 6 MPH (5 KT):0
Visibility: 10 mile(s):0
Sky conditions: overcast
Precipitation last hour: A trace
Temperature: 78.1 F (25.6 C)
Dew Point: 73.9 F (23.3 C)
Relative Humidity: 87%
Pressure (altimeter): 29.93 in. Hg (1013 hPa)
ob: KDNL 080053Z AUTO 06005KT 10SM FEW015 OVC026 26/23 A2993 RMK AO2 RAB00E40 SLP130 P0000 T02560233
cycle: 1

Station Type Date Time Source
KDNL TAF 2020/07/07 20:59 UTC NOAA

TAF
AMD KDNL 071959Z 0720/0818 12006KT 5SM -RA SCT007 OVC040
TEMPO 0720/0722 2SM -TSRA BKN008CB OVC025
FM080000 10005KT P6SM -RA OVC015
FM080600 07003KT 4SM BR OVC003
FM081500 01004KT P6SM OVC007

Example: see airport list